createdAt,value
2017-11-28T00:01:07.834Z,96.40
2017-11-28T00:03:36.076Z,96.90
2017-11-28T00:06:04.318Z,97.20
2017-11-28T00:08:32.580Z,96.90
2017-11-28T00:11:00.814Z,96.10
2017-11-28T00:13:29.044Z,96.10
2017-11-28T00:15:58.463Z,96.50
2017-11-28T00:18:26.699Z,96.10
2017-11-28T00:20:54.937Z,96.20
2017-11-28T00:23:23.188Z,96.40
2017-11-28T00:25:53.363Z,96.90
2017-11-28T00:28:21.600Z,96.80
2017-11-28T00:30:49.871Z,97.30
2017-11-28T00:33:18.867Z,97.60
2017-11-28T00:35:47.859Z,97.00
2017-11-28T00:38:16.204Z,96.90
2017-11-28T00:40:44.903Z,95.90
2017-11-28T00:43:13.912Z,96.20
2017-11-28T00:45:42.936Z,96.50
2017-11-28T00:48:11.170Z,96.50
2017-11-28T00:50:39.410Z,96.70
2017-11-28T00:53:07.664Z,97.00
2017-11-28T00:55:36.072Z,96.80
2017-11-28T00:58:04.311Z,97.40
2017-11-28T01:00:32.730Z,96.90
2017-11-28T01:03:00.964Z,98.10
2017-11-28T01:05:29.199Z,96.90
2017-11-28T01:07:57.455Z,97.10
2017-11-28T01:10:25.682Z,97.10
2017-11-28T01:12:53.917Z,96.50
2017-11-28T01:15:22.183Z,96.70
2017-11-28T01:17:50.424Z,96.30
2017-11-28T01:20:18.646Z,96.20
2017-11-28T01:22:47.406Z,97.10
2017-11-28T01:25:15.638Z,97.50
2017-11-28T01:27:43.871Z,97.90
2017-11-28T01:30:12.128Z,98.00
2017-11-28T01:32:40.369Z,97.30
2017-11-28T01:35:08.599Z,96.50
2017-11-28T01:37:36.868Z,96.00
2017-11-28T01:40:05.863Z,96.10
2017-11-28T01:42:34.687Z,96.10
2017-11-28T01:45:03.883Z,95.20
2017-11-28T01:47:32.127Z,95.40
2017-11-28T01:50:00.359Z,95.10
2017-11-28T01:52:28.615Z,95.70
2017-11-28T01:54:56.848Z,96.40
2017-11-28T01:57:25.083Z,95.40
2017-11-28T01:59:53.343Z,96.10
2017-11-28T02:02:21.571Z,96.10
2017-11-28T02:04:49.819Z,96.20
2017-11-28T02:07:20.062Z,96.80
2017-11-28T02:09:48.295Z,96.80
2017-11-28T02:12:16.528Z,96.10
2017-11-28T02:14:44.792Z,95.50
2017-11-28T02:17:13.022Z,96.60
2017-11-28T02:19:41.257Z,97.00
2017-11-28T02:22:09.511Z,96.60
2017-11-28T02:24:37.765Z,97.10
2017-11-28T02:27:06.772Z,97.40
2017-11-28T02:29:36.396Z,97.40
2017-11-28T02:32:04.628Z,97.00
2017-11-28T02:34:32.860Z,96.90
2017-11-28T02:37:01.123Z,96.70
2017-11-28T02:39:29.352Z,96.60
2017-11-28T02:41:57.582Z,96.60
2017-11-28T02:44:26.051Z,96.70
2017-11-28T02:46:54.283Z,96.40
2017-11-28T02:49:32.339Z,96.40
2017-11-28T02:52:05.150Z,96.50
2017-11-28T02:54:34.226Z,96.90
2017-11-28T02:57:02.459Z,97.10
2017-11-28T02:59:32.668Z,97.00
2017-11-28T03:02:03.318Z,97.00
2017-11-28T03:04:31.552Z,97.00
2017-11-28T03:07:00.739Z,96.60
2017-11-28T03:09:45.179Z,96.80
2017-11-28T03:12:15.968Z,96.90
2017-11-28T03:14:45.750Z,97.10
2017-11-28T03:17:14.007Z,97.00
2017-11-28T03:19:42.239Z,96.50
2017-11-28T03:22:33.270Z,96.40
2017-11-28T03:25:31.263Z,96.70
2017-11-28T03:28:13.372Z,96.70
2017-11-28T03:34:03.914Z,96.80
2017-11-28T03:36:32.149Z,97.10
2017-11-28T03:39:00.387Z,97.00
2017-11-28T03:41:28.648Z,96.90
2017-11-28T03:43:56.883Z,97.10
2017-11-28T03:46:25.593Z,97.60
2017-11-28T03:48:54.364Z,97.20
2017-11-28T03:51:22.594Z,97.30
2017-11-28T03:53:50.832Z,97.50
2017-11-28T03:56:19.087Z,96.80
2017-11-28T03:58:47.323Z,96.30
2017-11-28T04:01:16.319Z,96.00
2017-11-28T04:03:44.570Z,96.00
2017-11-28T04:06:13.024Z,96.20
2017-11-28T04:08:41.243Z,96.10
2017-11-28T04:11:09.548Z,96.40
2017-11-28T04:13:37.780Z,96.20
2017-11-28T04:16:06.022Z,96.20
2017-11-28T04:18:34.280Z,96.50
2017-11-28T04:21:02.510Z,96.80
2017-11-28T04:23:30.747Z,96.30
2017-11-28T04:25:59.067Z,96.60
2017-11-28T04:28:27.321Z,96.10
2017-11-28T04:30:55.544Z,96.60
2017-11-28T04:33:24.703Z,96.40
2017-11-28T04:35:52.939Z,96.40
2017-11-28T04:38:21.179Z,96.00
2017-11-28T04:40:49.440Z,96.90
2017-11-28T04:43:17.670Z,96.60
2017-11-28T04:45:45.919Z,96.80
2017-11-28T04:48:15.140Z,97.10
2017-11-28T04:50:43.375Z,97.10
2017-11-28T04:53:11.614Z,97.00
2017-11-28T04:55:39.944Z,97.20
2017-11-28T04:58:08.944Z,96.90
2017-11-28T05:00:37.947Z,97.10
2017-11-28T05:03:06.967Z,97.50
2017-11-28T05:05:35.202Z,97.50
2017-11-28T05:08:03.438Z,97.20
2017-11-28T05:10:31.696Z,96.90
2017-11-28T05:12:59.931Z,97.50
2017-11-28T05:15:28.933Z,97.30
2017-11-28T05:18:01.000Z,97.60
2017-11-28T05:20:29.999Z,97.90
2017-11-28T05:22:59.124Z,97.80
2017-11-28T05:25:27.374Z,98.00
2017-11-28T05:27:55.615Z,97.40
2017-11-28T05:30:23.847Z,97.30
2017-11-28T05:32:52.391Z,97.20
2017-11-28T05:35:21.387Z,97.60
2017-11-28T05:37:50.387Z,96.60
2017-11-28T05:40:19.476Z,96.30
2017-11-28T05:42:47.706Z,96.30
2017-11-28T05:45:15.948Z,96.90
2017-11-28T05:47:44.199Z,97.10
2017-11-28T05:50:13.219Z,96.90
2017-11-28T05:52:41.446Z,96.80
2017-11-28T05:55:09.707Z,96.80
2017-11-28T05:57:37.948Z,96.10
2017-11-28T06:00:06.179Z,96.20
2017-11-28T06:02:34.820Z,95.60
2017-11-28T06:05:03.051Z,95.60
2017-11-28T06:07:31.400Z,95.60
2017-11-28T06:09:59.712Z,96.20
2017-11-28T06:12:28.720Z,96.60
2017-11-28T06:14:57.722Z,97.10
2017-11-28T06:17:25.975Z,97.00
2017-11-28T06:19:55.092Z,96.30
2017-11-28T06:22:23.315Z,96.30
2017-11-28T06:24:52.064Z,96.60
2017-11-28T06:27:20.304Z,96.60
2017-11-28T06:29:48.530Z,97.60
2017-11-28T06:32:16.800Z,97.80
2017-11-28T06:34:45.031Z,97.00
2017-11-28T06:37:13.264Z,97.30
2017-11-28T06:39:41.520Z,97.00
2017-11-28T06:42:10.615Z,96.70
2017-11-28T06:44:38.855Z,96.90
2017-11-28T06:47:07.491Z,97.30
2017-11-28T06:49:35.731Z,97.00
2017-11-28T06:52:04.307Z,96.90
2017-11-28T06:54:32.565Z,96.90
2017-11-28T06:57:11.525Z,96.80
2017-11-28T07:02:41.524Z,96.40
2017-11-28T07:05:10.087Z,97.20
2017-11-28T07:07:38.334Z,97.20
2017-11-28T07:10:06.569Z,95.80
2017-11-28T07:12:35.215Z,95.70
2017-11-28T07:15:03.459Z,96.30
2017-11-28T07:17:31.686Z,96.20
2017-11-28T07:19:59.963Z,96.20
2017-11-28T07:22:28.179Z,96.20
2017-11-28T07:24:56.412Z,96.70
2017-11-28T07:27:25.198Z,95.50
2017-11-28T07:29:53.443Z,95.70
2017-11-28T07:32:21.664Z,95.20
2017-11-28T07:34:49.924Z,95.40
2017-11-28T07:37:18.158Z,95.30
2017-11-28T07:39:46.396Z,95.30
2017-11-28T07:42:14.657Z,95.20
2017-11-28T07:44:42.894Z,95.80
2017-11-28T07:47:11.894Z,95.10
2017-11-28T07:49:40.435Z,95.00
2017-11-28T07:52:08.979Z,94.80
2017-11-28T07:54:37.206Z,94.70
2017-11-28T07:57:05.466Z,95.20
2017-11-28T07:59:33.702Z,95.50
2017-11-28T08:02:01.940Z,95.10
2017-11-28T08:04:30.195Z,95.20
2017-11-28T08:06:58.428Z,93.70
2017-11-28T08:09:26.668Z,93.90
2017-11-28T08:11:55.851Z,93.40
2017-11-28T08:14:24.205Z,93.30
2017-11-28T08:16:52.423Z,93.00
2017-11-28T08:19:21.443Z,91.90
2017-11-28T08:21:49.687Z,91.90
2017-11-28T08:24:17.970Z,92.50
2017-11-28T08:26:46.999Z,92.70
2017-11-28T08:29:15.235Z,92.70
2017-11-28T08:31:44.241Z,93.10
2017-11-28T08:34:13.476Z,93.90
2017-11-28T08:36:41.764Z,93.90
2017-11-28T08:39:10.007Z,94.60
2017-11-28T08:41:38.299Z,94.30
2017-11-28T08:44:06.532Z,94.50
2017-11-28T08:46:34.763Z,95.10
2017-11-28T08:49:03.014Z,95.50
2017-11-28T08:51:31.250Z,95.80
2017-11-28T08:53:59.683Z,95.70
2017-11-28T08:56:28.148Z,96.00
2017-11-28T08:58:56.383Z,96.30
2017-11-28T09:01:24.620Z,96.20
2017-11-28T09:03:52.872Z,96.10
2017-11-28T09:06:21.188Z,96.20
2017-11-28T09:08:49.422Z,96.50
2017-11-28T09:11:17.682Z,96.10
2017-11-28T09:13:46.679Z,96.70
2017-11-28T09:16:15.678Z,96.50
2017-11-28T09:18:44.767Z,96.30
2017-11-28T09:21:13.818Z,96.50
2017-11-28T09:23:42.058Z,96.50
2017-11-28T09:26:10.346Z,96.20
2017-11-28T09:28:38.546Z,96.10
2017-11-28T09:31:06.788Z,95.90
2017-11-28T09:33:35.054Z,95.80
2017-11-28T09:36:03.283Z,96.10
2017-11-28T09:38:31.519Z,96.10
2017-11-28T09:41:00.150Z,96.10
2017-11-28T09:43:28.379Z,96.20
2017-11-28T09:45:56.619Z,95.90
2017-11-28T09:48:25.646Z,94.90
2017-11-28T09:50:53.880Z,94.80
2017-11-28T09:53:22.123Z,95.60
2017-11-28T09:55:50.983Z,94.50
2017-11-28T09:58:19.216Z,94.80
2017-11-28T10:00:47.457Z,94.10
2017-11-28T10:03:16.097Z,94.40
2017-11-28T10:05:44.320Z,93.90
2017-11-28T10:08:12.550Z,92.90
2017-11-28T10:10:41.570Z,94.30
2017-11-28T10:13:09.808Z,94.20
2017-11-28T10:15:38.043Z,94.70
2017-11-28T10:18:06.299Z,93.60
2017-11-28T10:20:34.547Z,94.30
2017-11-28T10:23:02.807Z,93.80
2017-11-28T10:25:31.560Z,94.10
2017-11-28T10:27:59.791Z,94.90
2017-11-28T10:30:28.027Z,95.20
2017-11-28T10:32:56.279Z,93.90
2017-11-28T10:35:24.510Z,94.10
2017-11-28T10:37:52.743Z,93.40
2017-11-28T10:40:21.005Z,93.60
2017-11-28T10:42:49.243Z,94.20
2017-11-28T10:45:17.470Z,94.50
2017-11-28T10:47:45.802Z,94.70
2017-11-28T10:50:14.819Z,95.20
2017-11-28T10:52:43.819Z,95.50
2017-11-28T10:55:12.848Z,96.20
2017-11-28T10:57:41.355Z,96.20
2017-11-28T11:00:09.605Z,97.00
2017-11-28T11:02:37.859Z,97.50
2017-11-28T11:05:06.096Z,96.40
2017-11-28T11:07:34.329Z,96.10
2017-11-28T11:10:02.794Z,95.30
2017-11-28T11:12:31.027Z,94.50
2017-11-28T11:14:59.394Z,94.50
2017-11-28T11:17:27.656Z,93.10
2017-11-28T11:19:55.892Z,93.70
2017-11-28T11:22:24.127Z,93.80
2017-11-28T11:24:52.384Z,93.10
2017-11-28T11:27:20.627Z,93.40
2017-11-28T11:29:48.862Z,93.80
2017-11-28T11:32:18.251Z,93.70
2017-11-28T11:34:46.471Z,93.70
2017-11-28T11:37:14.711Z,91.40
2017-11-28T11:39:42.971Z,91.60
2017-11-28T11:42:11.213Z,90.80
2017-11-28T11:44:39.440Z,88.40
2017-11-28T11:47:07.703Z,79.60
2017-11-28T11:49:35.956Z,82.70
2017-11-28T11:52:04.186Z,83.20
2017-11-28T11:54:33.511Z,73.20
2017-11-28T11:57:01.751Z,73.20
2017-11-28T11:59:30.262Z,73.40
2017-11-28T12:01:58.589Z,73.20
2017-11-28T12:04:26.827Z,74.70
2017-11-28T12:06:55.067Z,74.40
2017-11-28T12:09:24.102Z,70.40
2017-11-28T12:11:52.340Z,70.40
2017-11-28T12:14:20.579Z,72.90
2017-11-28T12:16:49.035Z,76.70
2017-11-28T12:19:18.031Z,75.60
2017-11-28T12:21:46.338Z,75.30
2017-11-28T12:24:14.596Z,78.70
2017-11-28T12:26:42.817Z,75.80
2017-11-28T12:29:11.815Z,75.10
2017-11-28T12:31:40.075Z,75.20
2017-11-28T12:34:09.079Z,76.40
2017-11-28T12:36:38.083Z,74.20
2017-11-28T12:39:07.442Z,74.10
2017-11-28T12:41:35.685Z,74.20
2017-11-28T12:44:03.915Z,76.90
2017-11-28T12:46:32.176Z,75.40
2017-11-28T12:49:00.414Z,76.70
2017-11-28T12:51:28.644Z,78.70
2017-11-28T12:53:57.674Z,78.40
2017-11-28T12:56:25.903Z,78.20
2017-11-28T12:58:54.139Z,79.40
2017-11-28T13:01:22.991Z,80.20
2017-11-28T13:03:51.231Z,78.00
2017-11-28T13:06:19.463Z,77.70
2017-11-28T13:08:47.720Z,77.10
2017-11-28T13:11:15.955Z,77.50
2017-11-28T13:13:44.193Z,76.50
2017-11-28T13:16:12.451Z,77.50
2017-11-28T13:18:41.451Z,77.10
2017-11-28T13:21:10.451Z,78.40
2017-11-28T13:23:39.155Z,78.20
2017-11-28T13:26:07.407Z,77.60
2017-11-28T13:28:35.628Z,78.80
2017-11-28T13:31:03.887Z,78.40
2017-11-28T13:33:32.119Z,79.30
2017-11-28T13:36:00.356Z,79.30
2017-11-28T13:38:28.614Z,80.20
2017-11-28T13:40:56.868Z,80.40
2017-11-28T13:43:25.871Z,79.90
2017-11-28T13:45:54.282Z,79.90
2017-11-28T13:48:22.510Z,79.00
2017-11-28T13:50:51.510Z,81.30
2017-11-28T13:53:19.767Z,81.30
2017-11-28T13:55:48.767Z,81.20
2017-11-28T13:58:17.015Z,81.20
2017-11-28T14:00:45.280Z,83.20
2017-11-28T14:03:13.620Z,83.10
2017-11-28T14:05:41.943Z,85.40
2017-11-28T14:08:10.387Z,84.90
2017-11-28T14:10:38.625Z,84.30
2017-11-28T14:13:07.627Z,86.30
2017-11-28T14:15:36.663Z,86.70
2017-11-28T14:18:04.895Z,86.60
2017-11-28T14:20:48.840Z,81.50
2017-11-28T14:23:31.963Z,75.50
2017-11-28T14:26:05.219Z,79.00
2017-11-28T14:28:43.562Z,78.60
2017-11-28T14:31:17.216Z,79.60
2017-11-28T14:33:45.471Z,82.10
2017-11-28T14:36:16.379Z,85.00
2017-11-28T14:38:44.635Z,84.70
2017-11-28T14:41:13.513Z,84.80
2017-11-28T14:43:44.703Z,84.00
2017-11-28T14:46:15.699Z,83.80
2017-11-28T14:48:43.945Z,83.70
2017-11-28T14:51:17.835Z,85.70
2017-11-28T14:53:52.502Z,87.10
2017-11-28T14:56:36.395Z,87.00
2017-11-28T14:59:10.935Z,90.20
2017-11-28T15:01:50.021Z,90.10
2017-11-28T15:04:33.609Z,88.70
2017-11-28T15:07:07.399Z,90.00
2017-11-28T15:09:41.300Z,90.40
2017-11-28T15:12:28.013Z,91.10
2017-11-28T15:15:01.803Z,91.00
2017-11-28T15:17:36.142Z,90.20
2017-11-28T15:20:21.143Z,90.20
2017-11-28T15:22:53.870Z,91.60
2017-11-28T15:25:23.120Z,90.10
2017-11-28T15:27:51.354Z,90.50
2017-11-28T15:30:20.380Z,91.10
2017-11-28T15:32:49.877Z,91.10
2017-11-28T15:35:18.136Z,91.10
2017-11-28T15:37:46.963Z,91.20
2017-11-28T15:40:15.215Z,91.80
2017-11-28T15:42:43.449Z,92.70
2017-11-28T15:45:11.715Z,92.50
2017-11-28T15:47:39.950Z,93.00
2017-11-28T15:50:08.222Z,92.00
2017-11-28T15:52:37.233Z,91.30
2017-11-28T15:55:05.485Z,91.30
2017-11-28T15:57:33.921Z,91.40
2017-11-28T16:00:02.236Z,91.40
2017-11-28T16:02:30.475Z,91.90
2017-11-28T16:04:58.712Z,92.20
2017-11-28T16:07:26.990Z,93.50
2017-11-28T16:09:55.236Z,92.20
2017-11-28T16:12:24.240Z,95.20
2017-11-28T16:14:53.263Z,93.00
2017-11-28T16:17:21.503Z,93.00
2017-11-28T16:19:49.743Z,93.20
2017-11-28T16:22:18.185Z,93.40
2017-11-28T16:24:46.426Z,94.00
2017-11-28T16:27:15.432Z,92.90
2017-11-28T16:29:44.463Z,92.70
2017-11-28T16:32:12.777Z,92.70
2017-11-28T16:34:40.999Z,93.70
2017-11-28T16:37:09.417Z,92.80
2017-11-28T16:39:37.639Z,92.60
2017-11-28T16:42:06.688Z,91.90
2017-11-28T16:44:35.370Z,91.90
2017-11-28T16:47:03.644Z,92.90
2017-11-28T16:49:31.882Z,92.10
2017-11-28T16:52:00.146Z,92.20
2017-11-28T16:54:29.152Z,92.10
2017-11-28T16:56:57.395Z,92.00
2017-11-28T16:59:25.883Z,95.00
2017-11-28T17:01:54.129Z,94.30
2017-11-28T17:04:22.455Z,94.70
2017-11-28T17:06:50.795Z,94.40
2017-11-28T17:09:21.310Z,94.30
2017-11-28T17:11:49.532Z,93.70
2017-11-28T17:14:17.975Z,93.40
2017-11-28T17:16:47.285Z,93.60
2017-11-28T17:19:15.516Z,93.70
2017-11-28T17:21:43.808Z,93.10
2017-11-28T17:24:13.998Z,93.50
2017-11-28T17:26:43.014Z,93.80
2017-11-28T17:29:11.583Z,93.80
2017-11-28T17:31:40.043Z,94.40
2017-11-28T17:34:09.042Z,94.30
2017-11-28T17:36:38.071Z,94.30
2017-11-28T17:39:06.335Z,94.20
2017-11-28T17:41:34.579Z,94.20
2017-11-28T17:44:02.858Z,94.40
2017-11-28T17:46:33.051Z,95.10
2017-11-28T17:49:01.437Z,95.10
2017-11-28T17:51:29.948Z,96.00
2017-11-28T17:53:59.131Z,94.90
2017-11-28T17:56:27.492Z,94.50
2017-11-28T17:58:56.068Z,92.80
2017-11-28T18:01:24.307Z,91.90
2017-11-28T18:03:52.620Z,91.60
2017-11-28T18:06:21.639Z,92.60
2017-11-28T18:08:50.043Z,91.70
2017-11-28T18:11:19.303Z,92.90
2017-11-28T18:13:47.755Z,92.60
2017-11-28T18:16:16.068Z,92.70
2017-11-28T18:18:44.450Z,92.60
2017-11-28T18:21:12.852Z,92.60
2017-11-28T18:23:41.852Z,93.30
2017-11-28T18:26:14.838Z,93.90
2017-11-28T18:28:45.023Z,93.70
2017-11-28T18:31:13.408Z,93.70
2017-11-28T18:33:41.905Z,94.20
2017-11-28T18:36:12.316Z,93.60
2017-11-28T18:38:40.687Z,93.60
2017-11-28T18:41:09.091Z,94.20
2017-11-28T18:43:37.459Z,94.30
2017-11-28T18:46:05.831Z,93.60
2017-11-28T18:48:34.231Z,94.50
2017-11-28T18:51:02.741Z,94.40
2017-11-28T18:53:31.125Z,94.20
2017-11-28T18:56:00.669Z,94.40
2017-11-28T18:58:31.098Z,94.40
2017-11-28T19:01:01.372Z,94.40
2017-11-28T19:03:31.587Z,94.40
2017-11-28T19:05:59.979Z,94.40
2017-11-28T19:08:28.382Z,94.40
2017-11-28T19:10:56.674Z,94.20
2017-11-28T19:13:25.990Z,94.20
2017-11-28T19:15:54.442Z,93.90
2017-11-28T19:18:22.821Z,94.10
2017-11-28T19:20:51.327Z,94.10
2017-11-28T19:23:21.673Z,94.60
2017-11-28T19:25:50.691Z,95.40
2017-11-28T19:28:19.055Z,95.40
2017-11-28T19:30:49.276Z,95.40
2017-11-28T19:33:18.547Z,94.90
2017-11-28T19:35:46.935Z,95.20
2017-11-28T19:38:15.459Z,94.50
2017-11-28T19:40:43.728Z,94.60
2017-11-28T19:43:12.739Z,94.60
2017-11-28T19:45:43.250Z,94.50
2017-11-28T19:48:12.359Z,96.00
2017-11-28T19:50:40.947Z,95.90
2017-11-28T19:53:09.311Z,95.40
2017-11-28T19:55:44.591Z,95.50
2017-11-28T19:58:12.903Z,95.40
2017-11-28T20:00:41.195Z,95.70
2017-11-28T20:03:10.474Z,95.80
2017-11-28T20:05:39.950Z,95.80
2017-11-28T20:08:08.463Z,95.90
2017-11-28T20:10:44.824Z,96.10
2017-11-28T20:13:17.186Z,95.90
2017-11-28T20:15:45.766Z,96.00
2017-11-28T20:18:15.203Z,95.70
2017-11-28T20:20:44.551Z,96.20
2017-11-28T20:23:12.897Z,95.90
2017-11-28T20:25:41.931Z,96.00
2017-11-28T20:28:10.251Z,96.00
2017-11-28T20:30:41.713Z,95.80
2017-11-28T20:33:11.911Z,95.50
2017-11-28T20:35:40.496Z,95.50
2017-11-28T20:38:08.834Z,95.20
2017-11-28T20:40:38.373Z,95.10
2017-11-28T20:43:06.730Z,95.80
2017-11-28T20:45:39.973Z,95.80
2017-11-28T20:48:09.251Z,96.00
2017-11-28T20:50:37.634Z,96.20
2017-11-28T20:53:07.879Z,95.70
2017-11-28T20:55:37.154Z,95.50
2017-11-28T20:58:05.532Z,95.40
2017-11-28T21:00:34.012Z,95.60
2017-11-28T21:03:02.303Z,96.30
2017-11-28T21:05:32.523Z,96.10
2017-11-28T21:08:00.912Z,96.50
2017-11-28T21:10:30.208Z,96.60
2017-11-28T21:13:02.595Z,96.60
2017-11-28T21:15:31.607Z,96.80
2017-11-28T21:17:59.935Z,96.80
2017-11-28T21:20:29.620Z,96.70
2017-11-28T21:22:58.842Z,96.50
2017-11-28T21:25:27.229Z,96.90
2017-11-28T21:27:55.627Z,97.20
2017-11-28T21:30:24.635Z,96.80
2017-11-28T21:32:54.831Z,96.80
2017-11-28T21:35:25.123Z,96.60
2017-11-28T21:37:53.586Z,96.50
2017-11-28T21:40:21.823Z,96.70
2017-11-28T21:42:50.941Z,96.70
2017-11-28T21:45:20.400Z,96.50
2017-11-28T21:47:49.092Z,96.10
2017-11-28T21:50:17.419Z,95.90
2017-11-28T21:52:45.869Z,95.70
2017-11-28T21:55:14.288Z,95.60
2017-11-28T21:57:42.633Z,95.90
2017-11-28T22:00:11.652Z,95.40
2017-11-28T22:02:39.979Z,95.40
2017-11-28T22:05:08.620Z,95.60
2017-11-28T22:07:37.036Z,95.70
2017-11-28T22:10:05.739Z,95.70
2017-11-28T22:12:35.071Z,95.90
2017-11-28T22:15:05.259Z,95.60
2017-11-28T22:17:35.499Z,95.60
2017-11-28T22:20:03.780Z,95.20
2017-11-28T22:22:36.331Z,95.00
2017-11-28T22:25:04.687Z,94.90
2017-11-28T22:27:32.937Z,95.30
2017-11-28T22:30:01.171Z,96.00
2017-11-28T22:32:29.436Z,95.60
2017-11-28T22:34:57.811Z,94.80
2017-11-28T22:37:26.055Z,93.90
2017-11-28T22:39:54.327Z,93.30
2017-11-28T22:42:22.574Z,93.60
2017-11-28T22:44:50.826Z,94.00
2017-11-28T22:47:19.156Z,94.40
2017-11-28T22:49:47.410Z,94.30
2017-11-28T22:52:15.657Z,94.90
2017-11-28T22:54:43.940Z,94.80
2017-11-28T22:57:12.200Z,94.80
2017-11-28T22:59:40.440Z,94.70
2017-11-28T23:02:08.703Z,95.20
2017-11-28T23:04:36.971Z,95.30
2017-11-28T23:07:05.979Z,95.70
2017-11-28T23:09:34.384Z,95.70
2017-11-28T23:12:02.943Z,96.00
2017-11-28T23:14:34.620Z,95.10
2017-11-28T23:17:02.901Z,95.00
2017-11-28T23:19:31.155Z,95.30
2017-11-28T23:21:59.398Z,95.00
2017-11-28T23:24:27.892Z,95.40
2017-11-28T23:26:58.071Z,95.30
2017-11-28T23:29:26.319Z,95.20
2017-11-28T23:31:54.646Z,95.60
2017-11-28T23:34:22.899Z,95.20
2017-11-28T23:36:51.139Z,95.20
2017-11-28T23:39:19.412Z,96.20
2017-11-28T23:41:47.656Z,95.50
2017-11-28T23:44:15.902Z,95.90
2017-11-28T23:46:44.163Z,95.30
2017-11-28T23:49:12.407Z,95.20
2017-11-28T23:51:40.651Z,95.50
2017-11-28T23:54:08.977Z,95.50
2017-11-28T23:56:37.219Z,95.90
2017-11-28T23:59:06.247Z,95.70
